ウルムチ の空港の天気 - METARとTAF

ウルムチ地窩堡国際空港 ( ZWWW / URC ) - 中国 新疆ウイグル自治区ウルムチ市
飛行場実況気象(Metar)
観測時間07/29 09:00 CST (07/29 01:00 UTC)
風向・風速北西 3m/s
視程10km以上
天気現象
なし
気温25℃
湿度34%
気圧1006hPa
METARZWWW 290100Z 32003MPS CAVOK 25/08 Q1006 NOSIG
過去の天気等 Google飛行場航空写真 Wunderground天気予報

過去48時間のMETAR

飛行場予報(TAF)
発表時間: 7/29 05:02 CST (7/28 21:02 UTC)
予報対象時間: 29日8時 CST ~ 30日8時 CST
風向・風速南 4m/s
視程10km以上
なし
29日10時 CST ~ 29日11時 CST に徐々に
風向・風速北 4m/s
29日21時 CST ~ 29日22時 CST に徐々に
風向・風速南 4m/s
TAF ZWWW 282102Z 2900/2924 18004MPS CAVOK TX36/2909Z TN26/2923Z
BECMG 2902/2903 36004MPS
BECMG 2913/2914 18004MPS